Time;durP1;ratioP1;P1;durP2;ratioP2;P2;SDS_P1;SDS_P2;PMS_P1;PMS_P2;Temp;Humidity;BMP_temperature;BMP_pressure;BME280_temperature;BME280_humidity;BME280_pressure;Samples;Min_cycle;Max_cycle;Signal;HPM_P1;HPM_P2
2023/10/14 04:31:06;;;;;;;;;;;;;;;20.64;65.35;96768.41;4214413;27;10402;-71
2023/10/14 04:33:35;;;;;;;;;;;;;;;20.93;64.60;96763.47;4215003;28;5687;-76
2023/10/14 04:36:09;;;;;;;;;;;;;;;21.15;64.29;96763.34;4208605;28;5706;-68
2023/10/14 04:38:42;;;;;;;;;;;;;;;21.32;63.54;96760.50;4215158;28;5213;-68
2023/10/14 04:41:03;;;;;;;;;;;;;;;21.45;63.27;96758.13;4214850;28;5696;-68
2023/10/14 04:43:50;;;;;;;;;;;;;;;21.55;63.22;96761.94;4215211;28;5691;-68
2023/10/14 04:46:15;;;;;;;;;;;;;;;21.64;62.82;96763.06;4208661;28;6702;-68
2023/10/14 04:48:39;;;;;;;;;;;;;;;21.69;62.54;96765.75;4214552;28;5683;-68
2023/10/14 04:51:06;;;;;;;;;;;;;;;21.76;62.65;96769.00;4214861;28;5682;-68
2023/10/14 04:53:31;;;;;;;;;;;;;;;21.79;62.49;96771.16;4214916;28;5788;-69
2023/10/14 04:55:54;;;;;;;;;;;;;;;21.82;62.05;96773.31;4214815;28;5703;-68
2023/10/14 04:58:23;;;;;;;;;;;;;;;21.86;62.29;96770.88;4213993;28;5703;-68
2023/10/14 05:00:45;;;;;;;;;;;;;;;21.87;62.11;96778.72;4214211;28;5840;-67
2023/10/14 05:03:10;;;;;;;;;;;;;;;21.89;61.77;96784.66;4212124;28;5753;-69
2023/10/14 05:05:33;;;;;;;;;;;;;;;21.88;61.83;96788.41;4201051;28;5875;-68
2023/10/14 05:07:58;;;;;;;;;;;;;;;21.85;62.15;96791.63;4213707;28;5675;-68
2023/10/14 05:10:19;;;;;;;;;;;;;;;21.84;62.56;96781.13;4198904;28;5903;-67
2023/10/14 05:12:43;;;;;;;;;;;;;;;21.84;62.49;96781.94;4214503;28;5691;-67
2023/10/14 05:15:12;;;;;;;;;;;;;;;21.84;62.33;96790.00;4214141;28;6384;-68
2023/10/14 05:17:34;;;;;;;;;;;;;;;21.81;62.32;96782.47;4214129;28;5687;-68
2023/10/14 05:19:59;;;;;;;;;;;;;;;21.76;62.79;96790.53;4213668;28;5845;-67
2023/10/14 05:22:23;;;;;;;;;;;;;;;21.73;63.14;96802.59;4211929;28;6380;-68
2023/10/14 05:24:52;;;;;;;;;;;;;;;21.66;62.81;96795.88;4214316;28;5743;-68
2023/10/14 05:27:14;;;;;;;;;;;;;;;21.67;63.14;96789.41;4208563;28;5695;-67
2023/10/14 05:29:35;;;;;;;;;;;;;;;21.67;63.04;96784.84;4214146;28;5710;-68
2023/10/14 05:32:10;;;;;;;;;;;;;;;21.65;63.31;96778.13;4200801;28;5695;-67
2023/10/14 05:34:32;;;;;;;;;;;;;;;21.65;62.90;96772.75;4200755;28;5707;-68
2023/10/14 05:36:56;;;;;;;;;;;;;;;21.64;63.24;96771.13;4201634;28;5703;-68
2023/10/14 05:39:18;;;;;;;;;;;;;;;21.63;63.24;96772.16;4198140;28;5691;-67
2023/10/14 05:41:39;;;;;;;;;;;;;;;21.63;62.93;96785.63;4199728;28;5691;-68
2023/10/14 05:44:04;;;;;;;;;;;;;;;21.64;62.92;96782.69;4201701;28;5683;-67
2023/10/14 05:46:26;;;;;;;;;;;;;;;21.62;62.95;96784.00;4202789;28;5253;-67
2023/10/14 05:48:52;;;;;;;;;;;;;;;21.64;63.07;96796.16;4202547;28;5695;-67
2023/10/14 05:51:15;;;;;;;;;;;;;;;21.65;63.49;96788.88;4202285;28;5898;-67
2023/10/14 05:53:38;;;;;;;;;;;;;;;21.64;63.45;96784.56;4202378;28;5683;-68
2023/10/14 05:56:09;;;;;;;;;;;;;;;21.65;63.22;96791.56;4199101;28;5690;-68
2023/10/14 05:58:34;;;;;;;;;;;;;;;21.66;63.52;96793.19;4200698;28;5694;-69
2023/10/14 06:00:56;;;;;;;;;;;;;;;21.65;63.09;96794.25;4202547;28;5693;-68
2023/10/14 06:03:19;;;;;;;;;;;;;;;21.65;63.60;96805.03;4201889;28;5699;-68
2023/10/14 06:05:41;;;;;;;;;;;;;;;21.64;63.46;96806.09;4202047;28;6389;-68
2023/10/14 06:08:05;;;;;;;;;;;;;;;21.64;63.13;96808.78;4191996;28;5667;-68
2023/10/14 06:10:31;;;;;;;;;;;;;;;21.65;63.49;96819.28;4192063;28;5807;-69
2023/10/14 06:12:53;;;;;;;;;;;;;;;21.67;63.53;96814.44;4200047;28;5679;-68
2023/10/14 06:15:17;;;;;;;;;;;;;;;21.65;63.15;96823.84;4196352;28;5898;-68
2023/10/14 06:17:39;;;;;;;;;;;;;;;21.65;63.14;96827.34;4202130;28;5691;-67
2023/10/14 06:20:04;;;;;;;;;;;;;;;21.62;63.30;96824.34;4201956;28;5679;-68
2023/10/14 06:22:26;;;;;;;;;;;;;;;21.62;63.27;96821.66;4202214;28;6079;-68
2023/10/14 06:24:48;;;;;;;;;;;;;;;21.61;63.32;96822.75;4205909;28;7700;-67
2023/10/14 06:27:20;;;;;;;;;;;;;;;21.60;63.38;96829.19;4206624;28;5661;-67
2023/10/14 06:29:45;;;;;;;;;;;;;;;21.60;63.69;96823.81;4200527;28;5691;-68
2023/10/14 06:32:06;;;;;;;;;;;;;;;21.61;63.40;96826.25;4195300;28;5680;-68
2023/10/14 06:34:44;;;;;;;;;;;;;;;21.64;63.20;96816.84;4196578;28;5815;-67
2023/10/14 06:37:07;;;;;;;;;;;;;;;21.67;63.18;96825.19;4201443;28;5775;-68
2023/10/14 06:39:31;;;;;;;;;;;;;;;21.70;63.47;96829.25;4201494;28;5691;-67
2023/10/14 06:41:52;;;;;;;;;;;;;;;21.71;63.27;96828.16;4200893;28;7219;-68
2023/10/14 06:44:16;;;;;;;;;;;;;;;21.72;63.02;96827.91;4195472;28;5682;-68
2023/10/14 06:46:37;;;;;;;;;;;;;;;21.73;63.30;96829.50;4199166;28;6803;-67
2023/10/14 06:48:59;;;;;;;;;;;;;;;21.74;62.95;96827.63;4192246;28;5687;-68
2023/10/14 06:51:21;;;;;;;;;;;;;;;21.73;63.51;96834.09;4196431;28;5691;-68
2023/10/14 06:53:43;;;;;;;;;;;;;;;21.74;63.17;96838.41;4199745;28;5674;-68
2023/10/14 06:56:04;;;;;;;;;;;;;;;21.75;63.13;96842.72;4187135;28;5824;-68
2023/10/14 06:58:28;;;;;;;;;;;;;;;21.76;63.04;96831.69;4193452;28;5682;-67
2023/10/14 07:00:51;;;;;;;;;;;;;;;21.75;62.89;96832.78;4194109;28;5690;-66
2023/10/14 07:03:14;;;;;;;;;;;;;;;21.76;63.06;96853.22;4198031;28;5679;-66
2023/10/14 07:05:43;;;;;;;;;;;;;;;21.75;62.80;96842.72;4196864;28;6591;-66
2023/10/14 07:08:04;;;;;;;;;;;;;;;21.78;62.93;96848.38;4186524;28;7715;-66
2023/10/14 07:10:32;;;;;;;;;;;;;;;21.83;63.27;96846.78;4196690;28;5692;-66
2023/10/14 07:12:53;;;;;;;;;;;;;;;21.85;63.16;96841.94;4194775;28;8436;-66
2023/10/14 07:15:15;;;;;;;;;;;;;;;21.86;62.60;96843.56;4198981;28;6759;-66
2023/10/14 07:17:37;;;;;;;;;;;;;;;21.89;62.61;96849.25;4198776;28;7891;-66
2023/10/14 07:19:59;;;;;;;;;;;;;;;21.91;62.87;96854.34;4200689;28;5679;-66
2023/10/14 07:22:21;;;;;;;;;;;;;;;21.92;62.92;96854.09;4195383;28;5796;-66
2023/10/14 07:24:43;;;;;;;;;;;;;;;21.95;63.01;96863.50;4199308;28;6511;-66
2023/10/14 07:27:06;;;;;;;;;;;;;;;21.96;62.89;96863.25;4193184;28;5781;-67
2023/10/14 07:29:27;;;;;;;;;;;;;;;21.96;62.88;96865.94;4193736;28;5679;-68
2023/10/14 07:31:49;;;;;;;;;;;;;;;21.97;62.57;96875.66;4192420;28;5703;-66
2023/10/14 07:34:16;;;;;;;;;;;;;;;22.00;62.50;96872.41;4193496;28;5679;-66
2023/10/14 07:36:37;;;;;;;;;;;;;;;22.00;62.86;96879.69;4198274;28;6392;-67
2023/10/14 07:39:02;;;;;;;;;;;;;;;22.02;62.41;96864.09;4189990;28;5853;-79
2023/10/14 07:41:23;;;;;;;;;;;;;;;22.04;62.82;96875.38;4188032;28;5679;-63
2023/10/14 07:43:45;;;;;;;;;;;;;;;22.04;62.69;96872.69;4191449;28;5095;-67
2023/10/14 07:46:08;;;;;;;;;;;;;;;22.03;62.38;96877.28;4196039;28;5676;-63
2023/10/14 07:48:30;;;;;;;;;;;;;;;22.02;62.54;96875.66;4197828;28;5679;-64
2023/10/14 07:50:56;;;;;;;;;;;;;;;22.04;62.23;96873.50;4198032;28;5765;-63
2023/10/14 07:53:22;;;;;;;;;;;;;;;22.03;62.43;96871.88;4193736;28;5775;-63
2023/10/14 07:55:47;;;;;;;;;;;;;;;22.03;62.37;96877.28;4197611;28;5682;-63
2023/10/14 07:58:10;;;;;;;;;;;;;;;22.05;62.09;96869.75;4192561;28;5694;-63
2023/10/14 08:00:37;;;;;;;;;;;;;;;22.06;62.13;96863.31;4198898;28;5906;-63
2023/10/14 08:03:05;;;;;;;;;;;;;;;22.06;62.09;96860.63;4198407;28;5821;-63
2023/10/14 08:05:28;;;;;;;;;;;;;;;22.07;62.51;96856.84;4198614;28;6507;-63
2023/10/14 08:07:52;;;;;;;;;;;;;;;22.08;62.35;96853.09;4199210;28;5794;-63
2023/10/14 08:10:21;;;;;;;;;;;;;;;22.10;62.01;96862.81;4193191;28;5686;-62
2023/10/14 08:12:42;;;;;;;;;;;;;;;22.11;62.37;96853.66;4197458;28;5687;-62
2023/10/14 08:15:06;;;;;;;;;;;;;;;22.11;62.06;96851.75;4194105;28;5921;-63
2023/10/14 08:17:27;;;;;;;;;;;;;;;22.11;62.30;96856.34;4194852;28;5679;-63
2023/10/14 08:19:49;;;;;;;;;;;;;;;22.11;61.99;96850.94;4198053;28;5770;-63
2023/10/14 08:22:14;;;;;;;;;;;;;;;22.12;62.27;96850.69;4197030;28;6397;-63
2023/10/14 08:24:38;;;;;;;;;;;;;;;22.13;62.14;96854.19;4196800;28;6367;-62
2023/10/14 08:26:59;;;;;;;;;;;;;;;22.15;61.82;96855.53;4196989;28;5864;-63
2023/10/14 08:29:21;;;;;;;;;;;;;;;22.15;61.72;96852.84;4194959;28;5776;-63
2023/10/14 08:31:43;;;;;;;;;;;;;;;22.19;61.68;96853.09;4198523;28;6646;-64
2023/10/14 08:34:07;;;;;;;;;;;;;;;22.21;61.78;96853.69;4193136;28;5687;-64
2023/10/14 08:36:28;;;;;;;;;;;;;;;22.24;61.48;96853.13;4198906;28;5762;-62
2023/10/14 08:38:50;;;;;;;;;;;;;;;22.23;61.79;96843.44;4195822;28;5854;-64
2023/10/14 08:41:15;;;;;;;;;;;;;;;22.23;61.40;96855.03;4195510;28;5770;-63
2023/10/14 08:43:38;;;;;;;;;;;;;;;22.27;61.42;96849.91;4190829;28;5679;-64
2023/10/14 08:46:00;;;;;;;;;;;;;;;22.30;61.40;96850.16;4194685;28;5802;-63
2023/10/14 08:48:24;;;;;;;;;;;;;;;22.33;61.27;96846.97;4195669;28;5795;-63
2023/10/14 08:50:49;;;;;;;;;;;;;;;22.39;61.32;96847.78;4193532;28;5819;-63
2023/10/14 08:53:12;;;;;;;;;;;;;;;22.40;61.44;96854.78;4192835;28;5683;-62
2023/10/14 08:55:36;;;;;;;;;;;;;;;22.40;61.36;96846.69;4195375;28;5663;-63
2023/10/14 08:57:39;;;;;;;;;;;;;;;22.39;61.30;96831.59;4195440;28;5782;-64
2023/10/14 08:59:44;;;;;;;;;;;;;;;22.39;60.39;96842.38;4197430;28;5754;-64
2023/10/14 09:01:54;;;;;;;;;;;;;;;22.39;60.62;96837.00;4189800;28;5720;-64
2023/10/14 09:03:59;;;;;;;;;;;;;;;22.41;59.91;96836.72;4185991;28;5712;-63
2023/10/14 09:06:06;;;;;;;;;;;;;;;22.40;59.86;96829.72;4199259;28;5105;-63
2023/10/14 09:08:11;;;;;;;;;;;;;;;22.42;59.62;96838.34;4195550;28;6655;-64
2023/10/14 09:10:18;;;;;;;;;;;;;;;22.39;59.04;96837.00;4197173;28;6252;-63
2023/10/14 09:12:21;;;;;;;;;;;;;;;22.41;58.76;96840.22;4193440;28;5799;-64
2023/10/14 09:14:25;;;;;;;;;;;;;;;22.42;58.89;96838.34;4194525;28;5893;-64
2023/10/14 09:16:39;;;;;;;;;;;;;;;22.41;59.01;96845.63;4194373;28;5652;-64
2023/10/14 09:18:58;;;;;;;;;;;;;;;22.43;58.72;96845.38;4194277;28;5823;-64
2023/10/14 09:21:02;;;;;;;;;;;;;;;22.41;58.71;96842.91;4200597;28;5695;-64
2023/10/14 09:23:29;;;;;;;;;;;;;;;22.42;58.44;96852.63;4199458;28;5778;-62
2023/10/14 09:25:32;;;;;;;;;;;;;;;22.45;58.48;96851.28;4197319;28;5747;-63
2023/10/14 09:27:34;;;;;;;;;;;;;;;22.45;58.38;96854.81;4200073;28;5765;-62
2023/10/14 09:29:39;;;;;;;;;;;;;;;22.46;58.38;96856.41;4200374;28;5746;-63
2023/10/14 09:31:46;;;;;;;;;;;;;;;22.47;57.82;96849.94;4194350;28;5720;-65
2023/10/14 09:33:52;;;;;;;;;;;;;;;22.48;57.73;96850.75;4196484;28;5857;-66
2023/10/14 09:35:58;;;;;;;;;;;;;;;22.47;57.46;96849.94;4189587;28;5726;-63
2023/10/14 09:38:04;;;;;;;;;;;;;;;22.43;57.17;96867.72;4192352;28;5882;-66
2023/10/14 09:40:13;;;;;;;;;;;;;;;22.41;57.12;96875.25;4198758;28;7700;-65
2023/10/14 09:42:18;;;;;;;;;;;;;;;22.42;57.65;96863.38;4194066;28;5838;-65
2023/10/14 09:44:22;;;;;;;;;;;;;;;22.43;57.25;96869.63;4193160;28;5903;-64
2023/10/14 09:46:27;;;;;;;;;;;;;;;22.44;56.92;96877.44;4191879;28;5955;-65
2023/10/14 09:48:34;;;;;;;;;;;;;;;22.43;57.05;96870.41;4196061;28;5961;-65
2023/10/14 09:50:38;;;;;;;;;;;;;;;22.44;56.98;96872.03;4199930;28;5708;-64
2023/10/14 09:52:43;;;;;;;;;;;;;;;22.44;56.90;96871.22;4197246;28;5699;-64
2023/10/14 09:54:49;;;;;;;;;;;;;;;22.45;56.89;96868.25;4196576;28;6599;-64
2023/10/14 09:56:54;;;;;;;;;;;;;;;22.46;56.49;96869.06;4188836;28;5107;-64
2023/10/14 09:58:57;;;;;;;;;;;;;;;22.43;56.78;96867.72;4192518;28;5901;-62
2023/10/14 10:01:01;;;;;;;;;;;;;;;22.44;56.48;96876.63;4187726;28;5994;-63
2023/10/14 10:03:07;;;;;;;;;;;;;;;22.43;56.47;96870.41;4190235;28;5859;-63
2023/10/14 10:05:16;;;;;;;;;;;;;;;22.41;56.37;96871.75;4194683;28;5823;-64
2023/10/14 10:07:37;;;;;;;;;;;;;;;22.41;56.34;96872.53;4199097;28;5826;-64
2023/10/14 10:10:11;;;;;;;;;;;;;;;22.42;56.10;96886.81;4188959;28;5944;-64
2023/10/14 10:12:16;;;;;;;;;;;;;;;22.42;56.02;96884.94;4193333;28;5909;-64
2023/10/14 10:14:21;;;;;;;;;;;;;;;22.43;56.08;96891.97;4195568;28;5918;-63
2023/10/14 10:16:30;;;;;;;;;;;;;;;22.41;56.30;96883.31;4191986;28;5781;-63
2023/10/14 10:18:57;;;;;;;;;;;;;;;22.40;55.77;96884.41;4196175;28;5696;-64
2023/10/14 10:21:00;;;;;;;;;;;;;;;22.41;56.03;96886.03;4187761;28;5781;-68
2023/10/14 10:23:04;;;;;;;;;;;;;;;22.41;56.29;96894.09;4187012;28;5903;-68
2023/10/14 10:25:09;;;;;;;;;;;;;;;22.44;56.21;96887.41;4187134;28;5845;-66
2023/10/14 10:27:14;;;;;;;;;;;;;;;22.43;56.53;96891.97;4193791;28;5953;-66
2023/10/14 10:29:22;;;;;;;;;;;;;;;22.44;56.05;96892.78;4187600;28;5929;-66
2023/10/14 10:31:25;;;;;;;;;;;;;;;22.41;56.18;96894.09;4187341;28;5695;-67
2023/10/14 10:33:45;;;;;;;;;;;;;;;22.39;56.51;96896.25;4192768;28;5829;-66
2023/10/14 10:36:03;;;;;;;;;;;;;;;22.38;56.72;96894.63;4194885;28;5885;-67
2023/10/14 10:38:10;;;;;;;;;;;;;;;22.38;56.57;96894.63;4194805;28;5824;-67
2023/10/14 10:40:12;;;;;;;;;;;;;;;22.35;56.55;96889.78;4190652;28;5781;-68
2023/10/14 10:42:20;;;;;;;;;;;;;;;22.33;56.48;96897.34;4192410;28;5699;-66
2023/10/14 10:44:25;;;;;;;;;;;;;;;22.32;56.60;96895.72;4192193;28;5782;-65
2023/10/14 10:46:37;;;;;;;;;;;;;;;22.32;56.38;96896.53;4194152;28;5805;-65
2023/10/14 10:48:40;;;;;;;;;;;;;;;22.31;57.17;96891.38;4192770;28;5790;-66
2023/10/14 10:50:51;;;;;;;;;;;;;;;22.34;57.07;96894.38;4192309;28;5867;-66
2023/10/14 10:53:17;;;;;;;;;;;;;;;22.37;56.84;96887.63;4198213;28;5811;-65
2023/10/14 10:55:23;;;;;;;;;;;;;;;22.38;57.17;96895.44;4193018;28;5778;-68
2023/10/14 10:57:26;;;;;;;;;;;;;;;22.42;56.70;96890.31;4190320;28;6024;-68
2023/10/14 10:59:30;;;;;;;;;;;;;;;22.44;56.81;96890.91;4195857;28;5253;-65
2023/10/14 11:01:33;;;;;;;;;;;;;;;22.46;56.91;96882.53;4190812;28;5819;-65
2023/10/14 11:03:36;;;;;;;;;;;;;;;22.47;56.89;96879.56;4196122;28;5770;-66
2023/10/14 11:05:43;;;;;;;;;;;;;;;22.52;57.30;96884.16;4191937;28;5817;-65
2023/10/14 11:07:48;;;;;;;;;;;;;;;22.54;57.00;96882.84;4192740;28;5716;-64
2023/10/14 11:09:52;;;;;;;;;;;;;;;22.57;57.25;96884.19;4192637;28;5898;-66
2023/10/14 11:12:00;;;;;;;;;;;;;;;22.57;56.80;96884.97;4188965;28;5754;-67
2023/10/14 11:14:16;;;;;;;;;;;;;;;22.58;56.79;96892.00;4193176;28;5709;-65
2023/10/14 11:16:19;;;;;;;;;;;;;;;22.57;56.85;96886.88;4194911;28;5782;-71
2023/10/14 11:18:22;;;;;;;;;;;;;;;22.56;56.65;96879.88;4196739;28;5822;-65
2023/10/14 11:20:43;;;;;;;;;;;;;;;22.55;57.13;96879.06;4190132;28;5774;-68
2023/10/14 11:22:45;;;;;;;;;;;;;;;22.57;56.47;96865.31;4189175;28;5704;-69
2023/10/14 11:24:48;;;;;;;;;;;;;;;22.56;56.64;96867.22;4189725;28;5696;-66
2023/10/14 11:26:53;;;;;;;;;;;;;;;22.56;56.29;96864.50;4194450;28;5751;-66
2023/10/14 11:28:59;;;;;;;;;;;;;;;22.55;56.21;96868.28;4193651;28;5782;-66
2023/10/14 11:31:02;;;;;;;;;;;;;;;22.53;56.27;96867.72;4197616;28;6635;-67
2023/10/14 11:33:10;;;;;;;;;;;;;;;22.54;55.81;96857.78;4191126;28;5703;-67
2023/10/14 11:35:17;;;;;;;;;;;;;;;22.57;56.09;96860.75;4188135;28;6948;-66
2023/10/14 11:37:19;;;;;;;;;;;;;;;22.60;55.76;96857.50;4194426;28;5766;-64
2023/10/14 11:39:23;;;;;;;;;;;;;;;22.63;55.97;96859.66;4194485;28;5871;-65
2023/10/14 11:41:27;;;;;;;;;;;;;;;22.65;55.51;96851.28;4189778;28;5800;-66
2023/10/14 11:43:32;;;;;;;;;;;;;;;22.69;55.30;96856.97;4192352;28;5702;-68
2023/10/14 11:45:40;;;;;;;;;;;;;;;22.67;54.79;96860.75;4192275;28;5703;-68
2023/10/14 11:47:44;;;;;;;;;;;;;;;22.63;55.33;96858.84;4196843;28;5890;-65
2023/10/14 11:49:49;;;;;;;;;;;;;;;22.63;54.81;96859.66;4192587;28;5907;-70
2023/10/14 11:51:53;;;;;;;;;;;;;;;22.65;54.85;96854.81;4194522;28;5853;-70
2023/10/14 11:53:58;;;;;;;;;;;;;;;22.69;54.85;96867.75;4194690;28;5694;-67
2023/10/14 11:56:03;;;;;;;;;;;;;;;22.64;54.99;96861.25;4195387;28;5691;-63
2023/10/14 11:58:06;;;;;;;;;;;;;;;22.63;54.80;96859.66;4191932;28;5124;-63
2023/10/14 12:00:13;;;;;;;;;;;;;;;22.65;54.87;96851.28;4190926;28;5732;-63
2023/10/14 12:02:18;;;;;;;;;;;;;;;22.66;54.61;96858.31;4194962;28;5899;-69
2023/10/14 12:04:21;;;;;;;;;;;;;;;22.67;54.97;96858.06;4194774;28;5699;-77
2023/10/14 12:06:24;;;;;;;;;;;;;;;22.66;55.11;96858.31;4190945;28;5867;-66
2023/10/14 12:08:27;;;;;;;;;;;;;;;22.65;54.89;96843.22;4190282;28;5840;-72
2023/10/14 12:10:30;;;;;;;;;;;;;;;22.65;54.94;96848.59;4191369;28;5695;-67
2023/10/14 12:12:33;;;;;;;;;;;;;;;22.63;54.71;96842.69;4192818;28;5807;-66
2023/10/14 12:14:37;;;;;;;;;;;;;;;22.60;55.07;96849.41;4191297;28;5715;-66
2023/10/14 12:16:42;;;;;;;;;;;;;;;22.59;55.23;96842.41;4193739;28;5870;-65
2023/10/14 12:18:46;;;;;;;;;;;;;;;22.58;54.84;96846.19;4187152;28;5779;-66
2023/10/14 12:20:50;;;;;;;;;;;;;;;22.59;55.24;96838.91;4197038;28;7711;-65
2023/10/14 12:22:53;;;;;;;;;;;;;;;22.60;55.58;96838.63;4197556;28;5794;-66
2023/10/14 12:24:57;;;;;;;;;;;;;;;22.60;55.44;96841.34;4197707;28;5770;-66
2023/10/14 12:27:00;;;;;;;;;;;;;;;22.61;55.37;96834.06;4189985;28;5686;-66
2023/10/14 12:29:07;;;;;;;;;;;;;;;22.60;55.85;96833.25;4197114;28;5779;-65
2023/10/14 12:31:12;;;;;;;;;;;;;;;22.59;55.96;96834.34;4198282;28;6400;-66
2023/10/14 12:33:20;;;;;;;;;;;;;;;22.58;56.09;96824.63;4194851;28;5857;-65
2023/10/14 12:35:28;;;;;;;;;;;;;;;22.58;56.18;96834.59;4197647;28;5785;-66
2023/10/14 12:37:31;;;;;;;;;;;;;;;22.60;56.01;96835.13;4194536;28;5826;-66
2023/10/14 12:39:43;;;;;;;;;;;;;;;22.62;55.88;96828.41;4198207;28;5858;-67
2023/10/14 12:41:47;;;;;;;;;;;;;;;22.66;55.88;96834.06;4199851;28;5746;-70
2023/10/14 12:43:51;;;;;;;;;;;;;;;22.68;56.08;96826.53;4198135;28;5904;-67
2023/10/14 12:45:53;;;;;;;;;;;;;;;22.67;55.71;96827.59;4197132;28;5927;-72
2023/10/14 12:48:00;;;;;;;;;;;;;;;22.67;56.18;96824.91;4188710;28;7297;-66
2023/10/14 12:50:05;;;;;;;;;;;;;;;22.67;56.28;96827.59;4199688;28;5703;-73
2023/10/14 12:52:13;;;;;;;;;;;;;;;22.67;56.39;96825.72;4197689;28;6594;-65
2023/10/14 12:54:17;;;;;;;;;;;;;;;22.65;56.03;96825.19;4197038;28;5770;-66
2023/10/14 12:56:21;;;;;;;;;;;;;;;22.63;56.42;96832.72;4193061;28;7167;-65
2023/10/14 12:58:24;;;;;;;;;;;;;;;22.61;56.24;96834.88;4198605;28;5798;-64
2023/10/14 13:00:29;;;;;;;;;;;;;;;22.60;56.36;96838.63;4200222;28;6565;-64
2023/10/14 13:02:34;;;;;;;;;;;;;;;22.59;56.63;96844.31;4196120;28;6130;-64
2023/10/14 13:04:38;;;;;;;;;;;;;;;22.58;56.27;96840.81;4198371;28;5492;-64
2023/10/14 13:06:44;;;;;;;;;;;;;;;22.63;56.37;96842.69;4200669;28;5785;-71
2023/10/14 13:08:47;;;;;;;;;;;;;;;22.64;56.43;96845.09;4199725;28;5702;-70
2023/10/14 13:10:50;;;;;;;;;;;;;;;22.67;56.27;96849.97;4200150;28;5839;-63
2023/10/14 13:12:55;;;;;;;;;;;;;;;22.67;56.66;96847.28;4194049;28;5807;-66
2023/10/14 13:14:58;;;;;;;;;;;;;;;22.67;56.71;96844.59;4186856;28;5777;-64
2023/10/14 13:17:01;;;;;;;;;;;;;;;22.69;56.56;96856.97;4191833;28;5131;-63
2023/10/14 13:19:04;;;;;;;;;;;;;;;22.66;56.33;96848.34;4188120;28;5821;-63
2023/10/14 13:21:07;;;;;;;;;;;;;;;22.67;56.80;96852.66;4188054;28;5703;-63
2023/10/14 13:23:12;;;;;;;;;;;;;;;22.69;56.37;96860.47;4189152;28;5700;-64
2023/10/14 13:25:17;;;;;;;;;;;;;;;22.69;56.39;96857.78;4193479;28;5759;-63
2023/10/14 13:27:20;;;;;;;;;;;;;;;22.66;56.31;96851.06;4188874;28;5686;-64
2023/10/14 13:29:25;;;;;;;;;;;;;;;22.65;56.67;96854.81;4190038;28;5867;-64
2023/10/14 13:31:28;;;;;;;;;;;;;;;22.67;56.30;96849.97;4189879;28;5817;-64
2023/10/14 13:33:31;;;;;;;;;;;;;;;22.69;56.23;96847.00;4187241;28;5877;-65
2023/10/14 13:35:35;;;;;;;;;;;;;;;22.69;56.55;96854.28;4188636;28;6016;-64
2023/10/14 13:37:43;;;;;;;;;;;;;;;22.67;55.96;96860.75;4187470;28;5708;-64
2023/10/14 13:39:47;;;;;;;;;;;;;;;22.67;55.97;96854.56;4189138;28;5831;-64
2023/10/14 13:41:50;;;;;;;;;;;;;;;22.65;55.90;96852.13;4191220;28;5703;-64
2023/10/14 13:43:53;;;;;;;;;;;;;;;22.63;56.31;96858.84;4195240;28;5683;-64
2023/10/14 13:45:56;;;;;;;;;;;;;;;22.61;55.96;96856.41;4189995;28;5813;-63
2023/10/14 13:48:06;;;;;;;;;;;;;;;22.60;56.39;96857.50;4187232;28;5798;-64
2023/10/14 13:50:10;;;;;;;;;;;;;;;22.60;56.25;96854.81;4188654;28;5764;-64
2023/10/14 13:52:16;;;;;;;;;;;;;;;22.62;56.66;96849.16;4186954;28;5676;-64
2023/10/14 13:54:20;;;;;;;;;;;;;;;22.63;56.13;96843.47;4187000;28;5787;-64
2023/10/14 13:56:24;;;;;;;;;;;;;;;22.64;56.31;96849.69;4189575;28;5906;-64
2023/10/14 13:58:27;;;;;;;;;;;;;;;22.65;56.33;96851.28;4193234;28;5889;-64
2023/10/14 14:00:35;;;;;;;;;;;;;;;22.64;56.46;96855.06;4192721;28;5835;-64
2023/10/14 14:02:41;;;;;;;;;;;;;;;22.62;56.36;96859.91;4189471;28;5889;-64
2023/10/14 14:04:44;;;;;;;;;;;;;;;22.62;56.83;96857.22;4188730;28;5818;-65
2023/10/14 14:06:49;;;;;;;;;;;;;;;22.60;56.56;96859.38;4190534;28;5758;-65
2023/10/14 14:08:53;;;;;;;;;;;;;;;22.58;56.72;96867.75;4191342;28;5915;-64
2023/10/14 14:11:00;;;;;;;;;;;;;;;22.57;56.90;96868.00;4187259;28;5827;-64
2023/10/14 14:13:06;;;;;;;;;;;;;;;22.55;57.15;96876.38;4190902;28;5953;-63
2023/10/14 14:15:09;;;;;;;;;;;;;;;22.54;57.12;96871.25;4191989;28;5857;-64
2023/10/14 14:17:12;;;;;;;;;;;;;;;22.55;57.20;96873.66;4195266;28;5703;-63
2023/10/14 14:19:15;;;;;;;;;;;;;;;22.55;56.67;96880.94;4185964;28;5806;-64
2023/10/14 14:21:18;;;;;;;;;;;;;;;22.52;56.66;96879.56;4188819;28;5787;-64
2023/10/14 14:23:21;;;;;;;;;;;;;;;22.50;56.81;96868.25;4191119;28;5778;-65
2023/10/14 14:25:26;;;;;;;;;;;;;;;22.49;56.63;96869.34;4189911;28;5880;-65
2023/10/14 14:27:29;;;;;;;;;;;;;;;22.49;56.77;96868.53;4188808;28;5887;-65
2023/10/14 14:29:33;;;;;;;;;;;;;;;22.51;56.60;96866.38;4189497;28;7478;-65
2023/10/14 14:31:36;;;;;;;;;;;;;;;22.50;56.18;96864.75;4190921;28;5766;-64
2023/10/14 14:33:42;;;;;;;;;;;;;;;22.48;56.00;96872.31;4189502;28;5795;-65
2023/10/14 14:35:46;;;;;;;;;;;;;;;22.47;56.20;96878.78;4191686;28;5810;-64
2023/10/14 14:37:51;;;;;;;;;;;;;;;22.45;55.77;96876.34;4189117;28;5893;-65
2023/10/14 14:39:55;;;;;;;;;;;;;;;22.42;55.79;96876.84;4187470;28;5714;-65
2023/10/14 14:42:00;;;;;;;;;;;;;;;22.42;55.55;96870.66;4186798;28;5909;-65
2023/10/14 14:44:08;;;;;;;;;;;;;;;22.42;55.87;96876.06;4187038;28;5889;-64
2023/10/14 14:46:13;;;;;;;;;;;;;;;22.42;55.64;96876.84;4189068;28;5678;-65
2023/10/14 14:48:15;;;;;;;;;;;;;;;22.44;55.62;96882.00;4187576;28;5814;-65
2023/10/14 14:50:19;;;;;;;;;;;;;;;22.45;55.67;96886.31;4188488;28;5851;-64
2023/10/14 14:52:23;;;;;;;;;;;;;;;22.44;55.35;96888.19;4188852;28;5678;-65
2023/10/14 14:54:29;;;;;;;;;;;;;;;22.44;55.44;96882.81;4188490;28;5878;-66
2023/10/14 14:56:32;;;;;;;;;;;;;;;22.44;55.73;96887.41;4190068;28;5696;-66
2023/10/14 14:58:36;;;;;;;;;;;;;;;22.45;55.45;96894.41;4192291;28;5691;-65
2023/10/14 15:00:41;;;;;;;;;;;;;;;22.45;55.39;96889.00;4190199;28;5856;-65
2023/10/14 15:02:46;;;;;;;;;;;;;;;22.44;55.33;96888.19;4188031;28;5806;-65
2023/10/14 15:04:49;;;;;;;;;;;;;;;22.44;55.58;96882.00;4185503;28;5740;-65
2023/10/14 15:06:53;;;;;;;;;;;;;;;22.45;55.43;96889.00;4192542;28;5683;-65
2023/10/14 15:08:57;;;;;;;;;;;;;;;22.43;55.69;96894.66;4193665;28;6037;-65
2023/10/14 15:11:00;;;;;;;;;;;;;;;22.44;55.21;96888.19;4194501;28;5852;-66
2023/10/14 15:13:06;;;;;;;;;;;;;;;22.43;55.31;96885.78;4192863;28;5206;-67
2023/10/14 15:15:09;;;;;;;;;;;;;;;22.43;55.70;96897.34;4195173;28;6372;-66
2023/10/14 15:17:12;;;;;;;;;;;;;;;22.42;55.24;96901.09;4197599;28;5761;-67
2023/10/14 15:19:17;;;;;;;;;;;;;;;22.41;55.86;96899.47;4197938;28;5842;-66
2023/10/14 15:21:20;;;;;;;;;;;;;;;22.41;55.54;96898.69;4194191;28;5683;-66
2023/10/14 15:23:23;;;;;;;;;;;;;;;22.40;55.26;96889.78;4196169;28;6485;-65
2023/10/14 15:25:25;;;;;;;;;;;;;;;22.41;55.54;96894.09;4196674;28;5703;-66
2023/10/14 15:27:28;;;;;;;;;;;;;;;22.42;55.95;96897.59;4198274;28;6220;-66
2023/10/14 15:29:31;;;;;;;;;;;;;;;22.41;55.88;96894.09;4197483;28;5777;-65
2023/10/14 15:31:34;;;;;;;;;;;;;;;22.39;55.93;96901.63;4191325;28;5831;-65
2023/10/14 15:33:41;;;;;;;;;;;;;;;22.38;55.74;96891.94;4196949;28;5811;-65
2023/10/14 15:35:46;;;;;;;;;;;;;;;22.37;55.89;96891.13;4195061;28;5798;-64
2023/10/14 15:37:48;;;;;;;;;;;;;;;22.40;56.03;96903.25;4197894;28;5738;-65
2023/10/14 15:39:52;;;;;;;;;;;;;;;22.41;56.15;96899.47;4188906;28;5884;-65
2023/10/14 15:41:55;;;;;;;;;;;;;;;22.42;55.99;96911.88;4198661;28;5699;-65
2023/10/14 15:43:58;;;;;;;;;;;;;;;22.43;56.20;96913.53;4198278;28;5833;-65
2023/10/14 15:46:01;;;;;;;;;;;;;;;22.41;55.93;96912.94;4198262;28;5821;-65
2023/10/14 15:48:09;;;;;;;;;;;;;;;22.42;56.17;96924.53;4198853;28;5039;-65
2023/10/14 15:50:13;;;;;;;;;;;;;;;22.40;55.93;96915.91;4197844;28;5694;-65
2023/10/14 15:52:18;;;;;;;;;;;;;;;22.35;56.18;96914.84;4198425;28;5783;-65
2023/10/14 15:54:21;;;;;;;;;;;;;;;22.33;55.94;96913.50;4198634;28;5716;-65
2023/10/14 15:56:24;;;;;;;;;;;;;;;22.34;56.01;96915.09;4197528;28;5820;-65
2023/10/14 15:58:27;;;;;;;;;;;;;;;22.33;55.79;96913.50;4194445;28;5816;-64
2023/10/14 16:00:48;;;;;;;;;;;;;;;22.31;55.61;96915.63;4192405;28;5861;-64
2023/10/14 16:02:51;;;;;;;;;;;;;;;22.29;55.47;96917.75;4197977;28;5770;-64
2023/10/14 16:04:54;;;;;;;;;;;;;;;22.20;55.09;96911.28;4198527;28;5085;-65
2023/10/14 16:06:57;;;;;;;;;;;;;;;22.11;54.76;96915.56;4197978;28;5783;-65